Flight Track Log - Related Links

Times and Time Zones

All times are in EDT time to prevent confusion due to time zone crossing. See the EJA839 flight status page for this flight to view local times or setup timezone preferences in your user account.

Time Position Orientation Groundspeed Altitude Reporting Facility
EDT Latitude Longitude Course Direction KTS MPH feet Rate Location/Type
Sat 04:21:25 PM 44.8264 -93.4975 216° Southwest 187 215 2,300  Level FAA TRACON SMA TRACON (SMA)
Sat 04:21:45 PM 44.8106 -93.5136 216° Southwest 189 217 2,400 1,350 Climbing FAA TRACON SMA TRACON (SMA)
Sat 04:22:05 PM 44.7956 -93.5231 204° Southwest 187 215 3,200 3,600 Climbing FAA TRACON SMA TRACON (SMA)
Sat 04:22:25 PM 44.7800 -93.5331 205° Southwest 196 226 4,800 5,700 Climbing FAA TRACON SMA TRACON (SMA)
Sat 04:22:45 PM 44.7606 -93.5472 207° Southwest 205 236 7,000 5,400 Climbing FAA TRACON SMA TRACON (SMA)
Sat 04:23:05 PM 44.7431 -93.5564 200° South 213 245 8,400 3,750 Climbing FAA TRACON SMA TRACON (SMA)
Sat 04:23:25 PM 44.7236 -93.5594 186° South 225 259 9,500 3,150 Climbing FAA TRACON SMA TRACON (SMA)
Sat 04:23:45 PM 44.6983 -93.5453 158° South 256 295 10,500 3,000 Climbing FAA TRACON SMA TRACON (SMA)
Sat 04:24:05 PM 44.6819 -93.5181 130° Southeast 282 325 11,500 2,850 Climbing FAA TRACON SMA TRACON (SMA)
Sat 04:24:25 PM 44.6681 -93.4869 122° Southeast 301 346 12,400 3,000 Climbing FAA TRACON SMA TRACON (SMA)
Sat 04:24:45 PM 44.6558 -93.4422 111° Southeast 318 366 13,500 2,923 Climbing FAA TRACON SMA TRACON (SMA)
Sat 04:25:04 PM 44.6447 -93.4044 112° Southeast 333 383 14,300 2,615 Climbing FAA TRACON SMA TRACON (SMA)
Sat 04:25:24 PM 44.6336 -93.3653 112° Southeast 344 396 15,200 3,150 Climbing FAA TRACON SMA TRACON (SMA)
Sat 04:25:44 PM 44.6192 -93.3150 112° Southeast 359 413 16,400 3,150 Climbing FAA TRACON SMA TRACON (SMA)
Sat 04:26:04 PM 44.6078 -93.2747 112° Southeast 363 418 17,300 2,400 Climbing FAA TRACON SMA TRACON (SMA)
Sat 04:26:24 PM 44.5958 -93.2339 112° Southeast 364 419 18,000 2,550 Climbing FAA TRACON SMA TRACON (SMA)
Sat 04:26:44 PM 44.5817 -93.1814 111° Southeast 372 428 19,000 2,341 Climbing FAA TRACON SMA TRACON (SMA)
Sat 04:27:05 PM 44.5697 -93.1383 111° Southeast 380 437 19,600 2,049 Climbing FAA TRACON SMA TRACON (SMA)
Sat 04:27:25 PM 44.5547 -93.0831 111° Southeast 391 450 20,400 1,950 Climbing FAA TRACON SMA TRACON (SMA)
Sat 04:27:45 PM 44.5422 -93.0372 111° Southeast 401 461 20,900 1,650 Climbing FAA TRACON SMA TRACON (SMA)
Sat 04:28:05 PM 44.5292 -92.9922 112° Southeast 407 468 21,500 2,100 Climbing FAA TRACON SMA TRACON (SMA)
Sat 04:28:25 PM 44.5100 -92.9372 116° Southeast 412 474 22,300 2,100 Climbing FAA TRACON SMA TRACON (SMA)
Sat 04:28:45 PM 44.4922 -92.8939 120° Southeast 415 478 22,900 1,050 Climbing FAA TRACON SMA TRACON (SMA)
Sat 04:29:05 PM 44.4750 -92.8494 118° Southeast 418 481 23,000 150 Climbing FAA TRACON SMA TRACON (SMA)
Sat 04:29:25 PM 44.4511 -92.7944 121° Southeast 428 493 23,000  Level FAA TRACON SMA TRACON (SMA)
Sat 04:29:45 PM 44.4328 -92.7492 120° Southeast 433 498 23,000  Level FAA TRACON SMA TRACON (SMA)
Sat 04:30:05 PM 44.4144 -92.7039 120° Southeast 434 499 23,000  Level FAA TRACON SMA TRACON (SMA)
Sat 04:30:25 PM 44.3914 -92.6481 120° Southeast 431 496 23,000  Level FAA TRACON SMA TRACON (SMA)
Sat 04:30:45 PM 44.3731 -92.6039 120° Southeast 429 494 23,000  Level FAA TRACON SMA TRACON (SMA)
Sat 04:31:05 PM 44.3550 -92.5597 120° Southeast 428 493 23,000  Level FAA TRACON SMA TRACON (SMA)
Sat 04:31:25 PM 44.3319 -92.5047 120° Southeast 426 490 23,000  Level FAA TRACON SMA TRACON (SMA)
Sat 04:31:45 PM 44.3139 -92.4603 120° Southeast 426 490 23,000  Level FAA TRACON SMA TRACON (SMA)
Sat 04:32:05 PM 44.2908 -92.4047 120° Southeast 426 490 23,000  Level FAA TRACON SMA TRACON (SMA)
Sat 04:32:25 PM 44.2728 -92.3614 120° Southeast 425 489 23,000  Level FAA TRACON SMA TRACON (SMA)
Sat 04:32:44 PM 44.2544 -92.3192 121° Southeast 418 481 23,000  Level FAA TRACON SMA TRACON (SMA)
Sat 04:33:05 PM 44.2372 -92.2772 120° Southeast 410 472 23,000  Level FAA TRACON SMA TRACON (SMA)
Sat 04:33:25 PM 44.2161 -92.2253 120° Southeast 403 464 23,000  Level FAA TRACON SMA TRACON (SMA)
Sat 04:35:09 PM 44.1161 -92.0153 124° Southeast 390 449 23,000  Level Minneapolis Center
Sat 04:36:10 PM 44.0606 -91.8903 122° Southeast 384 442 23,000  Level Minneapolis Center
Sat 04:37:12 PM 44.0067 -91.7633 121° Southeast 384 442 23,000  Level Minneapolis Center
Sat 04:38:13 PM 43.9464 -91.6294 122° Southeast 382 440 23,000  Level Minneapolis Center
Sat 04:39:15 PM 43.8914 -91.5031 121° Southeast 384 442 23,000  Level Minneapolis Center
Sat 04:40:16 PM 43.8361 -91.3775 121° Southeast 384 442 23,000  Level Minneapolis Center
Sat 04:41:18 PM 43.7803 -91.2525 122° Southeast 384 442 23,000  Level Minneapolis Center
Sat 04:42:19 PM 43.7244 -91.1250 121° Southeast 387 445 23,000  Level Minneapolis Center
Sat 04:43:21 PM 43.6669 -91.0014 123° Southeast 385 443 23,000  Level Minneapolis Center
Sat 04:44:22 PM 43.6117 -90.8758 121° Southeast 385 443 23,000  Level Minneapolis Center
Sat 04:45:24 PM 43.5431 -90.7253 122° Southeast 388 447 23,000  Level Minneapolis Center
Sat 04:46:26 PM 43.4861 -90.6006 122° Southeast 387 445 23,000  Level Minneapolis Center
Sat 04:47:27 PM 43.4294 -90.4753 122° Southeast 387 445 23,000  Level Minneapolis Center
Sat 04:48:29 PM 43.3714 -90.3497 122° Southeast 389 448 23,000  Level Minneapolis Center
Sat 04:48:46 PM 43.3606 -90.3250 121° Southeast 390 449 23,000 -77 Level Chicago Center
Sat 04:49:47 PM 43.2833 -90.1917 128° Southeast 382 440 22,900 -1,122 Descending Chicago Center
Sat 04:50:49 PM 43.2058 -90.0742 132° Southeast 410 472 20,700 -2,226 Descending Chicago Center
Sat 04:51:51 PM 43.1242 -89.9517 132° Southeast 422 486 18,300 -2,146 Descending Chicago Center
Sat 04:52:52 PM 43.0503 -89.8397 132° Southeast 409 471 16,300 -2,244 Descending Chicago Center
Sat 04:53:54 PM 42.9658 -89.7133 132° Southeast 388 447 13,700 -2,226 Descending Chicago Center
Sat 04:54:56 PM 42.8983 -89.6106 132° Southeast 368 423 11,700 -1,268 Descending Chicago Center
Sat 04:55:57 PM 42.8331 -89.5139 133° Southeast 350 403 11,100 -293 Descending Chicago Center
Sat 04:56:59 PM 42.7675 -89.4161 132° Southeast 350 403 11,100 -48 Level Chicago Center
Sat 04:58:01 PM 42.7025 -89.3200 133° Southeast 348 400 11,000 -774 Descending Chicago Center
Sat 04:59:03 PM 42.6428 -89.2300 132° Southeast 321 369 9,500 -1,415 Descending Chicago Center
Sat 05:00:04 PM 42.5908 -89.1311 125° Southeast 274 315 8,100 -683 Descending Chicago Center
Sat 05:01:06 PM 42.5583 -89.0356 115° Southeast 278 320 8,100  Level Chicago Center
Sat 05:02:08 PM 42.5256 -88.9414 115° Southeast 278 320 8,100 -97 Level Chicago Center
Sat 05:03:10 PM 42.4928 -88.8444 115° Southeast 281 323 7,900 -585 Descending Chicago Center
Sat 05:04:11 PM 42.4617 -88.7519 114° Southeast 275 316 6,900 -927 Descending Chicago Center
Sat 05:05:13 PM 42.4308 -88.6633 115° Southeast 266 306 6,000 -871 Descending Chicago Center
Sat 05:06:15 PM 42.4053 -88.5550 108° East 266 306 5,100 -488 Descending Chicago Center
Sat 05:07:16 PM 42.4042 -88.4572 91° East 260 299 5,000 -49 Descending Chicago Center
Sat 05:08:18 PM 42.4019 -88.3600 92° East 261 300 5,000 -97 Level Chicago Center
Sat 05:09:20 PM 42.4003 -88.2631 91° East 260 299 4,800 -488 Descending Chicago Center
Sat 05:10:21 PM 42.4003 -88.1767 90° East 244 281 4,000 -390 Descending Chicago Center
Sat 05:11:23 PM 42.3958 -88.0986 94° East 228 262 4,000 -488 Level Chicago Center
Sat 05:12:24 PM 42.3772 -88.0294 110° East 203 234 3,000 -683 Descending Chicago Center
Sat 05:13:26 PM 42.3597 -87.9500 107° East 203 234 2,600 -387 Descending Chicago Center
Sat 05:16:00 PM 42.4167 -87.8667 132° Southeast  Level FlightAware Approximate

Login

Don't have an account? Register now (free) for customized features, flight alerts, and more!